sensor_id;sensor_type;location;lat;lon;timestamp;P1;durP1;ratioP1;P2;durP2;ratioP2
60614;SDS011;46444;45.590;5.284;2022-08-21T00:01:54;2.88;;;1.10;;
60614;SDS011;46444;45.590;5.284;2022-08-21T00:04:21;3.10;;;0.80;;
60614;SDS011;46444;45.590;5.284;2022-08-21T00:06:47;3.58;;;1.17;;
60614;SDS011;46444;45.590;5.284;2022-08-21T00:09:12;2.50;;;1.10;;
60614;SDS011;46444;45.590;5.284;2022-08-21T00:11:38;1.83;;;0.95;;
60614;SDS011;46444;45.590;5.284;2022-08-21T00:14:05;2.15;;;1.02;;
60614;SDS011;46444;45.590;5.284;2022-08-21T00:16:32;4.45;;;1.13;;
60614;SDS011;46444;45.590;5.284;2022-08-21T00:18:57;2.47;;;1.08;;
60614;SDS011;46444;45.590;5.284;2022-08-21T00:21:22;4.90;;;1.20;;
60614;SDS011;46444;45.590;5.284;2022-08-21T00:23:48;6.47;;;1.30;;
60614;SDS011;46444;45.590;5.284;2022-08-21T00:26:13;3.00;;;1.15;;
60614;SDS011;46444;45.590;5.284;2022-08-21T00:28:39;4.97;;;1.20;;
60614;SDS011;46444;45.590;5.284;2022-08-21T00:31:04;4.35;;;0.95;;
60614;SDS011;46444;45.590;5.284;2022-08-21T00:33:30;3.13;;;1.00;;
60614;SDS011;46444;45.590;5.284;2022-08-21T00:36:06;3.20;;;0.85;;
60614;SDS011;46444;45.590;5.284;2022-08-21T00:38:37;1.90;;;1.17;;
60614;SDS011;46444;45.590;5.284;2022-08-21T00:41:10;1.23;;;0.90;;
60614;SDS011;46444;45.590;5.284;2022-08-21T00:44:08;2.80;;;1.10;;
60614;SDS011;46444;45.590;5.284;2022-08-21T00:46:44;5.57;;;1.13;;
60614;SDS011;46444;45.590;5.284;2022-08-21T00:49:19;2.88;;;1.10;;
60614;SDS011;46444;45.590;5.284;2022-08-21T00:51:48;6.88;;;0.93;;
60614;SDS011;46444;45.590;5.284;2022-08-21T00:54:19;5.38;;;1.08;;
60614;SDS011;46444;45.590;5.284;2022-08-21T00:56:48;2.00;;;1.13;;
60614;SDS011;46444;45.590;5.284;2022-08-21T00:59:18;3.25;;;1.17;;
60614;SDS011;46444;45.590;5.284;2022-08-21T01:01:47;5.10;;;0.95;;
60614;SDS011;46444;45.590;5.284;2022-08-21T01:04:14;2.08;;;1.00;;
60614;SDS011;46444;45.590;5.284;2022-08-21T01:06:41;4.32;;;1.08;;
60614;SDS011;46444;45.590;5.284;2022-08-21T01:09:06;1.70;;;1.10;;
60614;SDS011;46444;45.590;5.284;2022-08-21T01:11:32;3.25;;;1.30;;
60614;SDS011;46444;45.590;5.284;2022-08-21T01:13:57;3.85;;;1.08;;
60614;SDS011;46444;45.590;5.284;2022-08-21T01:16:23;6.10;;;0.90;;
60614;SDS011;46444;45.590;5.284;2022-08-21T01:18:49;4.13;;;1.05;;
60614;SDS011;46444;45.590;5.284;2022-08-21T01:21:18;4.50;;;1.25;;
60614;SDS011;46444;45.590;5.284;2022-08-21T01:23:47;4.87;;;1.20;;
60614;SDS011;46444;45.590;5.284;2022-08-21T01:26:16;3.88;;;1.00;;
60614;SDS011;46444;45.590;5.284;2022-08-21T01:31:28;5.47;;;1.08;;
60614;SDS011;46444;45.590;5.284;2022-08-21T01:33:54;4.85;;;1.20;;
60614;SDS011;46444;45.590;5.284;2022-08-21T01:36:21;3.58;;;1.10;;
60614;SDS011;46444;45.590;5.284;2022-08-21T01:38:47;3.83;;;1.25;;
60614;SDS011;46444;45.590;5.284;2022-08-21T01:41:13;4.03;;;1.10;;
60614;SDS011;46444;45.590;5.284;2022-08-21T01:43:40;4.47;;;1.10;;
60614;SDS011;46444;45.590;5.284;2022-08-21T01:46:06;3.78;;;1.13;;
60614;SDS011;46444;45.590;5.284;2022-08-21T01:48:31;3.42;;;1.23;;
60614;SDS011;46444;45.590;5.284;2022-08-21T01:50:57;6.32;;;1.58;;
60614;SDS011;46444;45.590;5.284;2022-08-21T01:53:23;3.35;;;1.60;;
60614;SDS011;46444;45.590;5.284;2022-08-21T01:55:49;3.17;;;1.30;;
60614;SDS011;46444;45.590;5.284;2022-08-21T01:58:14;5.53;;;1.30;;
60614;SDS011;46444;45.590;5.284;2022-08-21T02:00:39;6.63;;;1.10;;
60614;SDS011;46444;45.590;5.284;2022-08-21T02:03:06;3.67;;;1.40;;
60614;SDS011;46444;45.590;5.284;2022-08-21T02:05:32;3.30;;;0.93;;
60614;SDS011;46444;45.590;5.284;2022-08-21T02:07:57;5.55;;;1.20;;
60614;SDS011;46444;45.590;5.284;2022-08-21T02:10:24;4.97;;;1.20;;
60614;SDS011;46444;45.590;5.284;2022-08-21T02:12:52;3.28;;;1.00;;
60614;SDS011;46444;45.590;5.284;2022-08-21T02:15:18;5.25;;;1.30;;
60614;SDS011;46444;45.590;5.284;2022-08-21T02:20:14;1.75;;;1.13;;
60614;SDS011;46444;45.590;5.284;2022-08-21T02:23:07;4.82;;;1.40;;
60614;SDS011;46444;45.590;5.284;2022-08-21T02:25:34;7.15;;;1.30;;
60614;SDS011;46444;45.590;5.284;2022-08-21T02:28:02;4.78;;;1.05;;
60614;SDS011;46444;45.590;5.284;2022-08-21T02:30:31;4.75;;;1.20;;
60614;SDS011;46444;45.590;5.284;2022-08-21T02:32:58;4.13;;;1.40;;
60614;SDS011;46444;45.590;5.284;2022-08-21T02:35:24;3.75;;;0.90;;
60614;SDS011;46444;45.590;5.284;2022-08-21T02:37:58;4.07;;;1.00;;
60614;SDS011;46444;45.590;5.284;2022-08-21T02:40:28;4.65;;;1.08;;
60614;SDS011;46444;45.590;5.284;2022-08-21T02:42:55;3.15;;;1.00;;
60614;SDS011;46444;45.590;5.284;2022-08-21T02:45:23;5.95;;;1.08;;
60614;SDS011;46444;45.590;5.284;2022-08-21T02:47:52;7.53;;;1.10;;
60614;SDS011;46444;45.590;5.284;2022-08-21T02:52:46;4.85;;;1.00;;
60614;SDS011;46444;45.590;5.284;2022-08-21T02:55:12;1.92;;;1.13;;
60614;SDS011;46444;45.590;5.284;2022-08-21T02:57:38;4.60;;;1.15;;
60614;SDS011;46444;45.590;5.284;2022-08-21T03:00:04;3.90;;;1.15;;
60614;SDS011;46444;45.590;5.284;2022-08-21T03:02:30;5.80;;;1.10;;
60614;SDS011;46444;45.590;5.284;2022-08-21T03:04:56;4.80;;;1.27;;
60614;SDS011;46444;45.590;5.284;2022-08-21T03:07:21;8.10;;;1.35;;
60614;SDS011;46444;45.590;5.284;2022-08-21T03:09:47;1.13;;;1.00;;
60614;SDS011;46444;45.590;5.284;2022-08-21T03:12:14;6.20;;;1.08;;
60614;SDS011;46444;45.590;5.284;2022-08-21T03:14:39;5.95;;;1.10;;
60614;SDS011;46444;45.590;5.284;2022-08-21T03:17:05;4.90;;;1.17;;
60614;SDS011;46444;45.590;5.284;2022-08-21T03:19:32;3.28;;;1.10;;
60614;SDS011;46444;45.590;5.284;2022-08-21T03:21:57;8.45;;;1.52;;
60614;SDS011;46444;45.590;5.284;2022-08-21T03:24:22;4.50;;;1.23;;
60614;SDS011;46444;45.590;5.284;2022-08-21T03:26:48;3.03;;;1.13;;
60614;SDS011;46444;45.590;5.284;2022-08-21T03:29:13;4.78;;;1.10;;
60614;SDS011;46444;45.590;5.284;2022-08-21T03:31:38;5.63;;;1.30;;
60614;SDS011;46444;45.590;5.284;2022-08-21T03:34:04;7.50;;;1.45;;
60614;SDS011;46444;45.590;5.284;2022-08-21T03:36:29;4.70;;;1.13;;
60614;SDS011;46444;45.590;5.284;2022-08-21T03:38:55;4.25;;;1.30;;
60614;SDS011;46444;45.590;5.284;2022-08-21T03:41:20;5.03;;;1.30;;
60614;SDS011;46444;45.590;5.284;2022-08-21T03:43:46;4.47;;;1.00;;
60614;SDS011;46444;45.590;5.284;2022-08-21T03:46:11;4.63;;;1.30;;
60614;SDS011;46444;45.590;5.284;2022-08-21T03:48:37;4.00;;;1.13;;
60614;SDS011;46444;45.590;5.284;2022-08-21T03:51:02;5.80;;;1.40;;
60614;SDS011;46444;45.590;5.284;2022-08-21T03:53:29;11.65;;;1.40;;
60614;SDS011;46444;45.590;5.284;2022-08-21T03:55:55;7.35;;;1.50;;
60614;SDS011;46444;45.590;5.284;2022-08-21T03:58:22;4.50;;;1.20;;
60614;SDS011;46444;45.590;5.284;2022-08-21T04:00:50;5.82;;;1.08;;
60614;SDS011;46444;45.590;5.284;2022-08-21T04:03:17;3.53;;;1.05;;
60614;SDS011;46444;45.590;5.284;2022-08-21T04:05:43;4.68;;;1.27;;
60614;SDS011;46444;45.590;5.284;2022-08-21T04:08:10;5.32;;;1.17;;
60614;SDS011;46444;45.590;5.284;2022-08-21T04:10:36;7.28;;;1.40;;
60614;SDS011;46444;45.590;5.284;2022-08-21T04:13:03;4.88;;;1.35;;
60614;SDS011;46444;45.590;5.284;2022-08-21T04:15:29;2.70;;;1.05;;
60614;SDS011;46444;45.590;5.284;2022-08-21T04:17:55;7.63;;;1.40;;
60614;SDS011;46444;45.590;5.284;2022-08-21T04:20:20;4.97;;;1.35;;
60614;SDS011;46444;45.590;5.284;2022-08-21T04:22:47;4.20;;;1.25;;
60614;SDS011;46444;45.590;5.284;2022-08-21T04:25:14;3.50;;;1.05;;
60614;SDS011;46444;45.590;5.284;2022-08-21T04:27:40;4.22;;;1.05;;
60614;SDS011;46444;45.590;5.284;2022-08-21T04:30:06;2.85;;;1.17;;
60614;SDS011;46444;45.590;5.284;2022-08-21T04:32:33;6.75;;;1.30;;
60614;SDS011;46444;45.590;5.284;2022-08-21T04:35:00;4.63;;;1.30;;
60614;SDS011;46444;45.590;5.284;2022-08-21T04:37:29;5.65;;;1.77;;
60614;SDS011;46444;45.590;5.284;2022-08-21T04:39:54;7.03;;;1.17;;
60614;SDS011;46444;45.590;5.284;2022-08-21T04:42:22;5.30;;;1.45;;
60614;SDS011;46444;45.590;5.284;2022-08-21T04:44:48;6.80;;;1.48;;
60614;SDS011;46444;45.590;5.284;2022-08-21T04:47:14;5.35;;;1.63;;
60614;SDS011;46444;45.590;5.284;2022-08-21T04:49:41;8.93;;;1.80;;
60614;SDS011;46444;45.590;5.284;2022-08-21T04:52:06;5.63;;;1.38;;
60614;SDS011;46444;45.590;5.284;2022-08-21T04:54:32;3.55;;;1.35;;
60614;SDS011;46444;45.590;5.284;2022-08-21T04:57:01;2.45;;;1.20;;
60614;SDS011;46444;45.590;5.284;2022-08-21T04:59:32;6.05;;;1.50;;
60614;SDS011;46444;45.590;5.284;2022-08-21T05:02:00;7.38;;;1.60;;
60614;SDS011;46444;45.590;5.284;2022-08-21T05:04:28;5.55;;;1.70;;
60614;SDS011;46444;45.590;5.284;2022-08-21T05:06:56;5.03;;;1.40;;
60614;SDS011;46444;45.590;5.284;2022-08-21T05:09:25;5.82;;;1.40;;
60614;SDS011;46444;45.590;5.284;2022-08-21T05:11:51;3.25;;;1.35;;
60614;SDS011;46444;45.590;5.284;2022-08-21T05:14:17;2.97;;;1.38;;
60614;SDS011;46444;45.590;5.284;2022-08-21T05:16:44;2.60;;;1.33;;
60614;SDS011;46444;45.590;5.284;2022-08-21T05:19:09;3.00;;;1.38;;
60614;SDS011;46444;45.590;5.284;2022-08-21T05:21:36;6.10;;;1.25;;
60614;SDS011;46444;45.590;5.284;2022-08-21T05:24:03;6.97;;;1.45;;
60614;SDS011;46444;45.590;5.284;2022-08-21T05:26:28;5.28;;;1.45;;
60614;SDS011;46444;45.590;5.284;2022-08-21T05:28:54;4.28;;;1.27;;
60614;SDS011;46444;45.590;5.284;2022-08-21T05:31:20;8.95;;;1.55;;
60614;SDS011;46444;45.590;5.284;2022-08-21T05:33:45;9.02;;;1.73;;
60614;SDS011;46444;45.590;5.284;2022-08-21T05:36:11;8.40;;;1.45;;
60614;SDS011;46444;45.590;5.284;2022-08-21T05:38:37;5.55;;;1.70;;
60614;SDS011;46444;45.590;5.284;2022-08-21T05:41:03;4.05;;;1.48;;
60614;SDS011;46444;45.590;5.284;2022-08-21T05:43:28;5.85;;;1.42;;
60614;SDS011;46444;45.590;5.284;2022-08-21T05:45:53;4.50;;;1.45;;
60614;SDS011;46444;45.590;5.284;2022-08-21T05:48:20;7.53;;;1.40;;
60614;SDS011;46444;45.590;5.284;2022-08-21T05:50:47;6.35;;;1.30;;
60614;SDS011;46444;45.590;5.284;2022-08-21T05:53:15;5.93;;;1.42;;
60614;SDS011;46444;45.590;5.284;2022-08-21T05:55:47;7.00;;;1.40;;
60614;SDS011;46444;45.590;5.284;2022-08-21T05:58:14;33.38;;;3.97;;
60614;SDS011;46444;45.590;5.284;2022-08-21T06:00:42;14.38;;;1.88;;
60614;SDS011;46444;45.590;5.284;2022-08-21T06:03:13;6.93;;;1.60;;
60614;SDS011;46444;45.590;5.284;2022-08-21T06:05:42;3.28;;;1.30;;
60614;SDS011;46444;45.590;5.284;2022-08-21T06:08:08;2.80;;;1.50;;
60614;SDS011;46444;45.590;5.284;2022-08-21T06:10:34;3.92;;;1.55;;
60614;SDS011;46444;45.590;5.284;2022-08-21T06:12:59;5.30;;;1.55;;
60614;SDS011;46444;45.590;5.284;2022-08-21T06:15:24;4.97;;;1.50;;
60614;SDS011;46444;45.590;5.284;2022-08-21T06:17:50;2.40;;;1.30;;
60614;SDS011;46444;45.590;5.284;2022-08-21T06:20:18;4.47;;;1.40;;
60614;SDS011;46444;45.590;5.284;2022-08-21T06:22:43;3.33;;;1.70;;
60614;SDS011;46444;45.590;5.284;2022-08-21T06:25:08;5.90;;;1.48;;
60614;SDS011;46444;45.590;5.284;2022-08-21T06:27:34;2.83;;;1.60;;
60614;SDS011;46444;45.590;5.284;2022-08-21T06:29:59;4.68;;;1.60;;
60614;SDS011;46444;45.590;5.284;2022-08-21T06:32:24;6.18;;;1.77;;
60614;SDS011;46444;45.590;5.284;2022-08-21T06:34:50;3.83;;;1.87;;
60614;SDS011;46444;45.590;5.284;2022-08-21T06:37:16;4.25;;;1.65;;
60614;SDS011;46444;45.590;5.284;2022-08-21T06:39:41;4.82;;;1.45;;
60614;SDS011;46444;45.590;5.284;2022-08-21T06:42:09;4.37;;;1.67;;
60614;SDS011;46444;45.590;5.284;2022-08-21T06:44:38;5.05;;;1.85;;
60614;SDS011;46444;45.590;5.284;2022-08-21T06:47:03;4.60;;;1.73;;
60614;SDS011;46444;45.590;5.284;2022-08-21T06:49:29;8.75;;;2.05;;
60614;SDS011;46444;45.590;5.284;2022-08-21T06:51:54;7.27;;;1.80;;
60614;SDS011;46444;45.590;5.284;2022-08-21T06:54:19;2.67;;;1.70;;
60614;SDS011;46444;45.590;5.284;2022-08-21T06:56:45;6.50;;;2.03;;
60614;SDS011;46444;45.590;5.284;2022-08-21T06:59:11;5.68;;;1.88;;
60614;SDS011;46444;45.590;5.284;2022-08-21T07:01:36;5.88;;;1.90;;
60614;SDS011;46444;45.590;5.284;2022-08-21T07:04:18;7.53;;;2.00;;
60614;SDS011;46444;45.590;5.284;2022-08-21T07:06:44;6.15;;;2.08;;
60614;SDS011;46444;45.590;5.284;2022-08-21T07:09:13;2.47;;;1.60;;
60614;SDS011;46444;45.590;5.284;2022-08-21T07:11:43;5.82;;;1.95;;
60614;SDS011;46444;45.590;5.284;2022-08-21T07:14:12;9.60;;;1.90;;
60614;SDS011;46444;45.590;5.284;2022-08-21T07:16:39;4.28;;;1.55;;
60614;SDS011;46444;45.590;5.284;2022-08-21T07:19:05;3.35;;;1.50;;
60614;SDS011;46444;45.590;5.284;2022-08-21T07:21:33;4.00;;;1.88;;
60614;SDS011;46444;45.590;5.284;2022-08-21T07:24:06;5.65;;;1.88;;
60614;SDS011;46444;45.590;5.284;2022-08-21T07:26:31;4.43;;;1.92;;
60614;SDS011;46444;45.590;5.284;2022-08-21T07:28:57;5.28;;;1.70;;
60614;SDS011;46444;45.590;5.284;2022-08-21T07:31:22;4.75;;;1.90;;
60614;SDS011;46444;45.590;5.284;2022-08-21T07:33:49;3.08;;;1.52;;
60614;SDS011;46444;45.590;5.284;2022-08-21T07:36:15;6.03;;;2.22;;
60614;SDS011;46444;45.590;5.284;2022-08-21T07:38:40;5.38;;;1.98;;
60614;SDS011;46444;45.590;5.284;2022-08-21T07:41:09;5.25;;;1.52;;
60614;SDS011;46444;45.590;5.284;2022-08-21T07:43:39;7.32;;;1.63;;
60614;SDS011;46444;45.590;5.284;2022-08-21T07:46:05;4.95;;;1.60;;
60614;SDS011;46444;45.590;5.284;2022-08-21T07:48:31;6.90;;;2.22;;
60614;SDS011;46444;45.590;5.284;2022-08-21T07:50:59;3.67;;;1.80;;
60614;SDS011;46444;45.590;5.284;2022-08-21T07:53:30;6.00;;;1.85;;
60614;SDS011;46444;45.590;5.284;2022-08-21T07:55:59;6.22;;;1.80;;
60614;SDS011;46444;45.590;5.284;2022-08-21T07:58:24;6.53;;;2.05;;
60614;SDS011;46444;45.590;5.284;2022-08-21T08:00:50;4.85;;;1.77;;
60614;SDS011;46444;45.590;5.284;2022-08-21T08:03:15;8.35;;;1.80;;
60614;SDS011;46444;45.590;5.284;2022-08-21T08:05:41;4.93;;;1.67;;
60614;SDS011;46444;45.590;5.284;2022-08-21T08:08:06;6.10;;;1.92;;
60614;SDS011;46444;45.590;5.284;2022-08-21T08:10:34;6.10;;;1.60;;
60614;SDS011;46444;45.590;5.284;2022-08-21T08:13:00;5.40;;;1.90;;
60614;SDS011;46444;45.590;5.284;2022-08-21T08:15:27;4.80;;;1.80;;
60614;SDS011;46444;45.590;5.284;2022-08-21T08:17:55;5.00;;;1.85;;
60614;SDS011;46444;45.590;5.284;2022-08-21T08:20:22;2.78;;;1.42;;
60614;SDS011;46444;45.590;5.284;2022-08-21T08:22:50;4.13;;;1.65;;
60614;SDS011;46444;45.590;5.284;2022-08-21T08:25:22;3.97;;;1.33;;
60614;SDS011;46444;45.590;5.284;2022-08-21T08:28:28;3.10;;;1.52;;
60614;SDS011;46444;45.590;5.284;2022-08-21T08:31:02;4.03;;;1.90;;
60614;SDS011;46444;45.590;5.284;2022-08-21T08:34:08;4.53;;;1.52;;
60614;SDS011;46444;45.590;5.284;2022-08-21T08:36:57;3.83;;;1.40;;
60614;SDS011;46444;45.590;5.284;2022-08-21T08:39:24;4.85;;;1.48;;
60614;SDS011;46444;45.590;5.284;2022-08-21T08:41:51;2.78;;;1.60;;
60614;SDS011;46444;45.590;5.284;2022-08-21T08:44:27;4.70;;;1.80;;
60614;SDS011;46444;45.590;5.284;2022-08-21T08:46:57;3.50;;;1.70;;
60614;SDS011;46444;45.590;5.284;2022-08-21T08:49:34;5.53;;;2.00;;
60614;SDS011;46444;45.590;5.284;2022-08-21T08:52:19;2.90;;;1.63;;
60614;SDS011;46444;45.590;5.284;2022-08-21T08:55:28;5.28;;;1.55;;
60614;SDS011;46444;45.590;5.284;2022-08-21T08:58:33;6.47;;;3.70;;
60614;SDS011;46444;45.590;5.284;2022-08-21T09:01:12;5.53;;;1.92;;
60614;SDS011;46444;45.590;5.284;2022-08-21T09:04:24;5.65;;;1.60;;
60614;SDS011;46444;45.590;5.284;2022-08-21T09:07:19;4.80;;;1.83;;
60614;SDS011;46444;45.590;5.284;2022-08-21T09:10:26;5.55;;;1.83;;
60614;SDS011;46444;45.590;5.284;2022-08-21T09:26:41;2.92;;;1.30;;
60614;SDS011;46444;45.590;5.284;2022-08-21T09:29:46;5.60;;;1.48;;
60614;SDS011;46444;45.590;5.284;2022-08-21T09:32:48;2.67;;;1.60;;
60614;SDS011;46444;45.590;5.284;2022-08-21T09:35:20;4.38;;;1.60;;
60614;SDS011;46444;45.590;5.284;2022-08-21T09:42:08;3.72;;;1.35;;
60614;SDS011;46444;45.590;5.284;2022-08-21T09:48:53;2.33;;;1.30;;
60614;SDS011;46444;45.590;5.284;2022-08-21T09:52:49;2.65;;;1.55;;
60614;SDS011;46444;45.590;5.284;2022-08-21T09:59:51;4.68;;;1.85;;
60614;SDS011;46444;45.590;5.284;2022-08-21T10:03:24;3.35;;;1.65;;
60614;SDS011;46444;45.590;5.284;2022-08-21T10:06:36;4.65;;;1.70;;
60614;SDS011;46444;45.590;5.284;2022-08-21T11:26:45;4.38;;;1.50;;
60614;SDS011;46444;45.590;5.284;2022-08-21T11:56:52;2.97;;;1.38;;
60614;SDS011;46444;45.590;5.284;2022-08-21T12:00:33;5.63;;;1.25;;
60614;SDS011;46444;45.590;5.284;2022-08-21T12:07:13;3.50;;;1.40;;
60614;SDS011;46444;45.590;5.284;2022-08-21T12:10:46;5.05;;;1.85;;
60614;SDS011;46444;45.590;5.284;2022-08-21T12:46:57;2.67;;;1.30;;
60614;SDS011;46444;45.590;5.284;2022-08-21T13:01:59;2.90;;;0.95;;
60614;SDS011;46444;45.590;5.284;2022-08-21T13:16:03;4.07;;;1.33;;
60614;SDS011;46444;45.590;5.284;2022-08-21T13:38:44;2.85;;;1.10;;
60614;SDS011;46444;45.590;5.284;2022-08-21T13:41:59;3.15;;;1.05;;
60614;SDS011;46444;45.590;5.284;2022-08-21T13:45:11;5.15;;;1.30;;
60614;SDS011;46444;45.590;5.284;2022-08-21T13:48:17;3.40;;;1.35;;
60614;SDS011;46444;45.590;5.284;2022-08-21T13:50:53;7.40;;;1.67;;
60614;SDS011;46444;45.590;5.284;2022-08-21T13:53:28;4.68;;;1.38;;
60614;SDS011;46444;45.590;5.284;2022-08-21T13:55:59;4.60;;;1.40;;
60614;SDS011;46444;45.590;5.284;2022-08-21T13:58:31;5.60;;;1.48;;
60614;SDS011;46444;45.590;5.284;2022-08-21T14:01:27;3.10;;;1.00;;
60614;SDS011;46444;45.590;5.284;2022-08-21T14:03:57;2.08;;;1.20;;
60614;SDS011;46444;45.590;5.284;2022-08-21T14:06:28;4.25;;;1.40;;
60614;SDS011;46444;45.590;5.284;2022-08-21T14:09:00;10.05;;;1.20;;
60614;SDS011;46444;45.590;5.284;2022-08-21T14:11:33;5.88;;;1.50;;
60614;SDS011;46444;45.590;5.284;2022-08-21T14:14:02;4.13;;;1.73;;
60614;SDS011;46444;45.590;5.284;2022-08-21T14:16:46;2.60;;;1.30;;
60614;SDS011;46444;45.590;5.284;2022-08-21T14:19:35;4.20;;;1.38;;
60614;SDS011;46444;45.590;5.284;2022-08-21T14:25:00;5.75;;;1.38;;
60614;SDS011;46444;45.590;5.284;2022-08-21T14:27:30;2.83;;;1.13;;
60614;SDS011;46444;45.590;5.284;2022-08-21T14:29:57;3.05;;;1.10;;
60614;SDS011;46444;45.590;5.284;2022-08-21T14:32:30;3.75;;;1.10;;
60614;SDS011;46444;45.590;5.284;2022-08-21T14:35:03;2.88;;;1.00;;
60614;SDS011;46444;45.590;5.284;2022-08-21T14:37:28;2.00;;;0.88;;
60614;SDS011;46444;45.590;5.284;2022-08-21T14:39:54;3.42;;;1.42;;
60614;SDS011;46444;45.590;5.284;2022-08-21T14:42:19;4.53;;;1.50;;
60614;SDS011;46444;45.590;5.284;2022-08-21T14:44:45;6.03;;;1.50;;
60614;SDS011;46444;45.590;5.284;2022-08-21T14:47:10;4.00;;;1.27;;
60614;SDS011;46444;45.590;5.284;2022-08-21T14:49:36;3.25;;;1.13;;
60614;SDS011;46444;45.590;5.284;2022-08-21T14:52:01;5.10;;;1.48;;
60614;SDS011;46444;45.590;5.284;2022-08-21T14:54:28;4.15;;;1.58;;
60614;SDS011;46444;45.590;5.284;2022-08-21T14:56:54;5.13;;;1.40;;
60614;SDS011;46444;45.590;5.284;2022-08-21T14:59:20;54.30;;;4.50;;
60614;SDS011;46444;45.590;5.284;2022-08-21T15:01:46;4.63;;;1.45;;
60614;SDS011;46444;45.590;5.284;2022-08-21T15:04:12;5.00;;;1.50;;
60614;SDS011;46444;45.590;5.284;2022-08-21T15:06:37;4.10;;;1.70;;
60614;SDS011;46444;45.590;5.284;2022-08-21T15:09:03;4.60;;;1.48;;
60614;SDS011;46444;45.590;5.284;2022-08-21T15:11:30;3.80;;;1.55;;
60614;SDS011;46444;45.590;5.284;2022-08-21T15:13:57;2.83;;;1.50;;
60614;SDS011;46444;45.590;5.284;2022-08-21T15:16:26;2.47;;;1.40;;
60614;SDS011;46444;45.590;5.284;2022-08-21T15:18:55;5.78;;;2.22;;
60614;SDS011;46444;45.590;5.284;2022-08-21T15:21:21;3.58;;;1.60;;
60614;SDS011;46444;45.590;5.284;2022-08-21T15:23:46;3.28;;;2.05;;
60614;SDS011;46444;45.590;5.284;2022-08-21T15:26:12;7.95;;;1.90;;
60614;SDS011;46444;45.590;5.284;2022-08-21T15:28:39;6.15;;;2.10;;
60614;SDS011;46444;45.590;5.284;2022-08-21T15:31:05;5.95;;;1.88;;
60614;SDS011;46444;45.590;5.284;2022-08-21T15:33:42;9.40;;;2.13;;
60614;SDS011;46444;45.590;5.284;2022-08-21T15:36:08;4.78;;;1.83;;
60614;SDS011;46444;45.590;5.284;2022-08-21T15:38:33;6.53;;;2.10;;
60614;SDS011;46444;45.590;5.284;2022-08-21T15:40:58;5.72;;;1.90;;
60614;SDS011;46444;45.590;5.284;2022-08-21T15:43:25;6.45;;;2.28;;
60614;SDS011;46444;45.590;5.284;2022-08-21T15:45:53;4.43;;;1.92;;
60614;SDS011;46444;45.590;5.284;2022-08-21T15:48:19;3.65;;;1.92;;
60614;SDS011;46444;45.590;5.284;2022-08-21T15:50:44;3.92;;;1.92;;
60614;SDS011;46444;45.590;5.284;2022-08-21T15:53:10;5.63;;;2.13;;
60614;SDS011;46444;45.590;5.284;2022-08-21T15:55:44;5.35;;;2.10;;
60614;SDS011;46444;45.590;5.284;2022-08-21T15:58:28;6.75;;;2.30;;
60614;SDS011;46444;45.590;5.284;2022-08-21T16:00:54;4.82;;;2.67;;
60614;SDS011;46444;45.590;5.284;2022-08-21T16:03:19;6.45;;;2.63;;
60614;SDS011;46444;45.590;5.284;2022-08-21T16:05:47;4.45;;;2.50;;
60614;SDS011;46444;45.590;5.284;2022-08-21T16:10:43;5.38;;;2.47;;
60614;SDS011;46444;45.590;5.284;2022-08-21T16:13:42;6.50;;;2.80;;
60614;SDS011;46444;45.590;5.284;2022-08-21T16:16:01;4.68;;;2.40;;
60614;SDS011;46444;45.590;5.284;2022-08-21T16:18:27;5.75;;;2.63;;
60614;SDS011;46444;45.590;5.284;2022-08-21T16:20:52;4.45;;;2.60;;
60614;SDS011;46444;45.590;5.284;2022-08-21T16:23:18;6.18;;;2.90;;
60614;SDS011;46444;45.590;5.284;2022-08-21T16:25:43;5.85;;;2.50;;
60614;SDS011;46444;45.590;5.284;2022-08-21T16:28:11;7.93;;;2.83;;
60614;SDS011;46444;45.590;5.284;2022-08-21T16:30:39;4.28;;;2.40;;
60614;SDS011;46444;45.590;5.284;2022-08-21T16:33:05;5.50;;;2.50;;
60614;SDS011;46444;45.590;5.284;2022-08-21T16:35:35;5.53;;;2.80;;
60614;SDS011;46444;45.590;5.284;2022-08-21T16:38:00;4.77;;;2.67;;
60614;SDS011;46444;45.590;5.284;2022-08-21T16:40:26;6.38;;;2.50;;
60614;SDS011;46444;45.590;5.284;2022-08-21T16:42:52;4.03;;;2.33;;
60614;SDS011;46444;45.590;5.284;2022-08-21T16:45:18;6.07;;;2.72;;
60614;SDS011;46444;45.590;5.284;2022-08-21T16:47:45;5.28;;;2.70;;
60614;SDS011;46444;45.590;5.284;2022-08-21T16:50:12;5.78;;;3.25;;
60614;SDS011;46444;45.590;5.284;2022-08-21T16:52:41;5.68;;;3.05;;
60614;SDS011;46444;45.590;5.284;2022-08-21T16:55:07;5.45;;;3.25;;
60614;SDS011;46444;45.590;5.284;2022-08-21T16:57:33;7.43;;;3.20;;
60614;SDS011;46444;45.590;5.284;2022-08-21T16:59:58;6.13;;;3.42;;
60614;SDS011;46444;45.590;5.284;2022-08-21T17:04:59;8.73;;;3.45;;
60614;SDS011;46444;45.590;5.284;2022-08-21T17:07:26;4.68;;;2.75;;
60614;SDS011;46444;45.590;5.284;2022-08-21T17:09:51;8.30;;;2.88;;
60614;SDS011;46444;45.590;5.284;2022-08-21T17:12:17;6.43;;;3.63;;
60614;SDS011;46444;45.590;5.284;2022-08-21T17:14:42;7.47;;;3.47;;
60614;SDS011;46444;45.590;5.284;2022-08-21T17:17:08;4.50;;;3.08;;
60614;SDS011;46444;45.590;5.284;2022-08-21T17:19:34;5.13;;;3.20;;
60614;SDS011;46444;45.590;5.284;2022-08-21T17:22:00;7.50;;;3.50;;
60614;SDS011;46444;45.590;5.284;2022-08-21T17:24:26;7.35;;;3.33;;
60614;SDS011;46444;45.590;5.284;2022-08-21T17:26:52;6.55;;;3.20;;
60614;SDS011;46444;45.590;5.284;2022-08-21T17:29:22;7.05;;;3.85;;
60614;SDS011;46444;45.590;5.284;2022-08-21T17:31:51;6.40;;;3.55;;
60614;SDS011;46444;45.590;5.284;2022-08-21T17:34:16;12.60;;;4.30;;
60614;SDS011;46444;45.590;5.284;2022-08-21T17:36:41;6.60;;;3.97;;
60614;SDS011;46444;45.590;5.284;2022-08-21T17:39:07;9.63;;;3.92;;
60614;SDS011;46444;45.590;5.284;2022-08-21T17:41:34;6.28;;;3.38;;
60614;SDS011;46444;45.590;5.284;2022-08-21T17:44:02;7.55;;;4.47;;
60614;SDS011;46444;45.590;5.284;2022-08-21T17:46:31;8.57;;;4.07;;
60614;SDS011;46444;45.590;5.284;2022-08-21T17:48:57;7.22;;;4.00;;
60614;SDS011;46444;45.590;5.284;2022-08-21T17:51:22;7.07;;;3.97;;
60614;SDS011;46444;45.590;5.284;2022-08-21T17:53:48;5.85;;;3.10;;
60614;SDS011;46444;45.590;5.284;2022-08-21T17:56:13;6.72;;;3.22;;
60614;SDS011;46444;45.590;5.284;2022-08-21T17:58:45;8.15;;;4.38;;
60614;SDS011;46444;45.590;5.284;2022-08-21T18:01:20;7.85;;;3.80;;
60614;SDS011;46444;45.590;5.284;2022-08-21T18:03:46;7.93;;;4.05;;
60614;SDS011;46444;45.590;5.284;2022-08-21T18:06:13;10.80;;;4.60;;
60614;SDS011;46444;45.590;5.284;2022-08-21T18:09:12;9.27;;;5.75;;
60614;SDS011;46444;45.590;5.284;2022-08-21T18:11:38;9.63;;;4.97;;
60614;SDS011;46444;45.590;5.284;2022-08-21T18:14:06;10.70;;;5.38;;
60614;SDS011;46444;45.590;5.284;2022-08-21T18:16:32;10.88;;;4.68;;
60614;SDS011;46444;45.590;5.284;2022-08-21T18:18:59;9.27;;;4.47;;
60614;SDS011;46444;45.590;5.284;2022-08-21T18:21:27;5.95;;;3.40;;
60614;SDS011;46444;45.590;5.284;2022-08-21T18:23:57;9.30;;;4.40;;
60614;SDS011;46444;45.590;5.284;2022-08-21T18:26:24;7.90;;;4.00;;
60614;SDS011;46444;45.590;5.284;2022-08-21T18:28:52;8.90;;;3.72;;
60614;SDS011;46444;45.590;5.284;2022-08-21T18:31:18;7.65;;;3.65;;
60614;SDS011;46444;45.590;5.284;2022-08-21T18:33:45;7.10;;;3.83;;
60614;SDS011;46444;45.590;5.284;2022-08-21T18:36:11;19.00;;;4.35;;
60614;SDS011;46444;45.590;5.284;2022-08-21T18:38:36;5.95;;;3.22;;
60614;SDS011;46444;45.590;5.284;2022-08-21T18:41:02;9.43;;;3.80;;
60614;SDS011;46444;45.590;5.284;2022-08-21T18:43:27;7.07;;;3.05;;
60614;SDS011;46444;45.590;5.284;2022-08-21T18:45:53;9.00;;;4.10;;
60614;SDS011;46444;45.590;5.284;2022-08-21T18:48:18;8.30;;;3.30;;
60614;SDS011;46444;45.590;5.284;2022-08-21T18:50:44;6.35;;;3.63;;
60614;SDS011;46444;45.590;5.284;2022-08-21T18:53:11;10.32;;;3.63;;
60614;SDS011;46444;45.590;5.284;2022-08-21T18:55:38;9.05;;;4.07;;